Terminal Aerodrome Forecast
Issued by NWS

Home | Current Version | Previous Version | Graphics & Text | Print | Product List | Glossary On
Versions: 1 2 3 4 5 6 7 8 9 10 11 12 13 14
000
FTUS43 KICT 172333
TAFHUT
TAF
KHUT 172333Z 1800/1824 VRB03KT P6SM SKC
     FM181100 19005KT P6SM VCTS BKN080CB
     FM181500 20012KT P6SM SCT070=

USA.gov is the U.S. government's official web portal to all federal, state and local government web resources and services.